createdAt,value
2022-09-12T00:00:09.088Z,0.00
2022-09-12T00:01:08.912Z,0.00
2022-09-12T00:02:08.827Z,0.00
2022-09-12T00:03:08.766Z,0.00
2022-09-12T00:04:08.914Z,0.00
2022-09-12T00:05:08.671Z,0.00
2022-09-12T00:06:08.718Z,0.00
2022-09-12T00:07:08.589Z,0.00
2022-09-12T00:08:08.533Z,0.00
2022-09-12T00:09:08.612Z,0.00
2022-09-12T00:10:08.544Z,0.00
2022-09-12T00:11:08.406Z,0.00
2022-09-12T00:12:08.575Z,0.00
2022-09-12T00:13:08.320Z,0.00
2022-09-12T00:14:08.370Z,0.00
2022-09-12T00:15:08.234Z,0.00
2022-09-12T00:16:08.447Z,0.00
2022-09-12T00:17:08.148Z,0.00
2022-09-12T00:18:08.399Z,0.00
2022-09-12T00:19:08.202Z,0.00
2022-09-12T00:20:08.052Z,0.00
2022-09-12T00:21:08.008Z,0.00
2022-09-12T00:22:07.934Z,0.00
2022-09-12T00:23:08.023Z,0.00
2022-09-12T00:24:07.845Z,0.00
2022-09-12T00:25:07.887Z,0.00
2022-09-12T00:26:07.860Z,0.00
2022-09-12T00:27:07.826Z,0.00
2022-09-12T00:28:07.859Z,0.00
2022-09-12T00:29:07.692Z,0.00
2022-09-12T00:30:07.693Z,0.00
2022-09-12T00:31:07.723Z,0.00
2022-09-12T00:32:07.719Z,0.00
2022-09-12T00:33:07.459Z,0.00
2022-09-12T00:34:07.548Z,0.00
2022-09-12T00:35:07.403Z,0.00
2022-09-12T00:36:07.539Z,0.00
2022-09-12T00:37:07.356Z,0.00
2022-09-12T00:38:07.311Z,0.00
2022-09-12T00:39:07.267Z,0.00
2022-09-12T00:40:07.393Z,0.00
2022-09-12T00:41:07.176Z,0.00
2022-09-12T00:42:07.113Z,0.00
2022-09-12T00:43:07.148Z,0.00
2022-09-12T00:44:07.231Z,0.00
2022-09-12T00:45:07.060Z,0.00
2022-09-12T00:46:06.926Z,0.00
2022-09-12T00:47:07.082Z,0.00
2022-09-12T00:48:06.851Z,0.00
2022-09-12T00:49:06.885Z,0.00
2022-09-12T00:50:06.768Z,0.00
2022-09-12T00:51:06.962Z,0.00
2022-09-12T00:52:06.645Z,0.00
2022-09-12T00:53:06.705Z,0.00
2022-09-12T00:54:06.752Z,0.00
2022-09-12T00:55:06.513Z,0.00
2022-09-12T00:56:06.785Z,0.00
2022-09-12T00:57:06.429Z,0.00
2022-09-12T00:58:06.540Z,0.00
2022-09-12T00:59:06.346Z,0.00
2022-09-12T01:00:06.342Z,0.00
2022-09-12T01:01:06.450Z,0.00
2022-09-12T01:02:06.396Z,0.00
2022-09-12T01:03:06.374Z,0.00
2022-09-12T01:04:06.131Z,0.00
2022-09-12T01:05:06.171Z,0.00
2022-09-12T01:06:06.051Z,0.00
2022-09-12T01:07:06.239Z,0.00
2022-09-12T01:08:06.279Z,0.00
2022-09-12T01:09:06.005Z,0.00
2022-09-12T01:10:05.867Z,0.00
2022-09-12T01:11:05.830Z,0.00
2022-09-12T01:12:05.870Z,0.00
2022-09-12T01:13:05.738Z,0.00
2022-09-12T01:14:05.839Z,0.00
2022-09-12T01:15:05.652Z,0.00
2022-09-12T01:16:05.649Z,0.00
2022-09-12T01:17:05.568Z,0.00
2022-09-12T01:18:06.746Z,0.00
2022-09-12T01:19:05.490Z,0.00
2022-09-12T01:20:05.777Z,0.00
2022-09-12T01:21:05.395Z,0.00
2022-09-12T01:22:05.353Z,0.00
2022-09-12T01:23:05.388Z,0.00
2022-09-12T01:24:05.318Z,0.00
2022-09-12T01:25:05.406Z,0.00
2022-09-12T01:26:05.200Z,0.00
2022-09-12T01:27:05.199Z,0.00
2022-09-12T01:28:05.093Z,0.00
2022-09-12T01:29:05.251Z,0.00
2022-09-12T01:30:05.081Z,0.00
2022-09-12T01:31:05.242Z,0.00
2022-09-12T01:32:05.024Z,0.00
2022-09-12T01:33:04.872Z,0.00
2022-09-12T01:34:05.114Z,0.00
2022-09-12T01:35:04.790Z,0.00
2022-09-12T01:36:04.870Z,0.00
2022-09-12T01:37:04.852Z,0.00
2022-09-12T01:38:04.656Z,0.00
2022-09-12T01:39:04.618Z,0.00
2022-09-12T01:40:04.837Z,0.00
2022-09-12T01:41:04.628Z,0.00
2022-09-12T01:42:04.775Z,0.00
2022-09-12T01:43:04.562Z,0.00
2022-09-12T01:44:04.418Z,0.00
2022-09-12T01:45:04.587Z,0.00
2022-09-12T01:46:04.350Z,0.00
2022-09-12T01:47:04.521Z,0.00
2022-09-12T01:48:04.230Z,0.00
2022-09-12T01:49:04.200Z,0.00
2022-09-12T01:50:04.139Z,0.00
2022-09-12T01:51:04.262Z,0.00
2022-09-12T01:52:04.056Z,0.00
2022-09-12T01:53:04.173Z,0.00
2022-09-12T01:54:03.988Z,0.00
2022-09-12T01:55:08.970Z,0.00
2022-09-12T01:56:03.993Z,0.00
2022-09-12T01:57:03.873Z,0.00
2022-09-12T01:58:04.037Z,0.00
2022-09-12T01:59:03.808Z,0.00
2022-09-12T02:00:03.715Z,0.00
2022-09-12T02:01:03.689Z,0.00
2022-09-12T02:02:04.093Z,0.00
2022-09-12T02:03:03.699Z,0.00
2022-09-12T02:04:03.640Z,0.00
2022-09-12T02:05:03.497Z,0.00
2022-09-12T02:06:03.685Z,0.00
2022-09-12T02:07:03.520Z,0.00
2022-09-12T02:08:03.486Z,0.00
2022-09-12T02:09:03.318Z,0.00
2022-09-12T02:10:03.379Z,0.00
2022-09-12T02:11:03.382Z,0.00
2022-09-12T02:12:03.187Z,0.00
2022-09-12T02:13:03.404Z,0.00
2022-09-12T02:14:03.145Z,0.00
2022-09-12T02:15:03.214Z,0.00
2022-09-12T02:16:03.262Z,0.00
2022-09-12T02:17:04.054Z,0.00
2022-09-12T02:18:02.946Z,0.00
2022-09-12T02:19:03.036Z,0.00
2022-09-12T02:20:02.890Z,0.00
2022-09-12T02:21:03.948Z,0.00
2022-09-12T02:22:04.078Z,0.00
2022-09-12T02:23:02.715Z,0.00
2022-09-12T02:24:02.868Z,0.00
2022-09-12T02:25:02.634Z,0.00
2022-09-12T02:26:02.676Z,0.00
2022-09-12T02:27:02.651Z,0.00
2022-09-12T02:28:02.891Z,0.00
2022-09-12T02:29:02.450Z,0.00
2022-09-12T02:30:02.505Z,0.00
2022-09-12T02:31:02.402Z,0.00
2022-09-12T02:32:02.407Z,0.00
2022-09-12T02:33:02.299Z,0.00
2022-09-12T02:34:02.425Z,0.00
2022-09-12T02:35:02.198Z,0.00
2022-09-12T02:36:02.233Z,0.00
2022-09-12T02:37:02.107Z,0.00
2022-09-12T02:38:02.315Z,0.00
2022-09-12T02:39:02.020Z,0.00
2022-09-12T02:40:02.109Z,0.00
2022-09-12T02:41:01.972Z,0.00
2022-09-12T02:42:02.074Z,0.00
2022-09-12T02:43:01.845Z,0.00
2022-09-12T02:44:01.817Z,0.00
2022-09-12T02:45:02.093Z,0.00
2022-09-12T02:46:01.801Z,0.00
2022-09-12T02:47:01.905Z,0.00
2022-09-12T02:48:01.642Z,0.00
2022-09-12T02:49:01.584Z,0.00
2022-09-12T02:50:01.550Z,0.00
2022-09-12T02:51:01.731Z,0.00
2022-09-12T02:52:01.471Z,0.00
2022-09-12T02:53:01.584Z,0.00
2022-09-12T02:54:01.369Z,0.00
2022-09-12T02:55:01.330Z,0.00
2022-09-12T02:56:01.356Z,0.00
2022-09-12T02:57:01.409Z,0.00
2022-09-12T02:58:01.377Z,0.00
2022-09-12T02:59:01.188Z,0.00
2022-09-12T03:00:01.188Z,0.00
2022-09-12T03:01:01.092Z,0.00
2022-09-12T03:02:01.227Z,0.00
2022-09-12T03:03:01.072Z,0.00
2022-09-12T03:04:01.001Z,0.00
2022-09-12T03:05:00.886Z,0.00
2022-09-12T03:06:00.844Z,0.00
2022-09-12T03:07:01.077Z,0.00
2022-09-12T03:08:00.758Z,0.00
2022-09-12T03:09:01.038Z,0.00
2022-09-12T03:10:00.672Z,0.00
2022-09-12T03:11:00.626Z,0.00
2022-09-12T03:12:00.586Z,0.00
2022-09-12T03:13:00.658Z,0.00
2022-09-12T03:14:00.535Z,0.00
2022-09-12T03:15:00.682Z,0.00
2022-09-12T03:16:00.461Z,0.00
2022-09-12T03:17:00.401Z,0.00
2022-09-12T03:18:00.503Z,0.00
2022-09-12T03:19:00.625Z,0.00
2022-09-12T03:20:00.328Z,0.00
2022-09-12T03:21:00.288Z,0.00
2022-09-12T03:22:00.149Z,0.00
2022-09-12T03:23:00.109Z,0.00
2022-09-12T03:24:00.218Z,0.00
2022-09-12T03:25:00.125Z,0.00
2022-09-12T03:26:00.148Z,0.00
2022-09-12T03:26:59.993Z,0.00
2022-09-12T03:27:59.925Z,0.00
2022-09-12T03:28:59.966Z,0.00
2022-09-12T03:30:00.013Z,0.00
2022-09-12T03:31:00.072Z,0.00
2022-09-12T03:31:59.747Z,0.00
2022-09-12T03:32:59.677Z,0.00
2022-09-12T03:33:59.640Z,0.00
2022-09-12T03:34:59.872Z,0.00
2022-09-12T03:35:59.660Z,0.00
2022-09-12T03:36:59.636Z,0.00
2022-09-12T03:37:59.462Z,0.00
2022-09-12T03:38:59.418Z,0.00
2022-09-12T03:39:59.675Z,0.00
2022-09-12T03:40:59.374Z,0.00
2022-09-12T03:41:59.646Z,0.00
2022-09-12T03:42:59.264Z,0.00
2022-09-12T03:43:59.192Z,0.00
2022-09-12T03:44:59.157Z,0.00
2022-09-12T03:45:59.286Z,0.00
2022-09-12T03:46:59.063Z,0.00
2022-09-12T03:47:59.287Z,0.00
2022-09-12T03:48:59.129Z,0.00
2022-09-12T03:49:59.022Z,0.00
2022-09-12T03:50:59.138Z,0.00
2022-09-12T03:51:58.935Z,0.00
2022-09-12T03:52:58.906Z,0.00
2022-09-12T03:53:58.760Z,0.00
2022-09-12T03:54:58.728Z,0.00
2022-09-12T03:55:58.930Z,0.00
2022-09-12T03:56:58.628Z,0.00
2022-09-12T03:57:58.809Z,0.00
2022-09-12T03:58:58.553Z,0.00
2022-09-12T03:59:58.748Z,0.00
2022-09-12T04:00:58.497Z,0.00
2022-09-12T04:01:59.045Z,0.00
2022-09-12T04:02:58.394Z,0.00
2022-09-12T04:03:58.577Z,0.00
2022-09-12T04:04:58.351Z,0.00
2022-09-12T04:05:58.234Z,0.00
2022-09-12T04:06:58.190Z,0.00
2022-09-12T04:07:58.601Z,0.00
2022-09-12T04:08:58.137Z,0.00
2022-09-12T04:09:58.209Z,0.00
2022-09-12T04:10:58.079Z,0.00
2022-09-12T04:11:58.320Z,0.00
2022-09-12T04:12:57.929Z,0.00
2022-09-12T04:13:58.035Z,0.00
2022-09-12T04:14:58.092Z,0.00
2022-09-12T04:15:58.052Z,0.00
2022-09-12T04:16:57.852Z,0.00
2022-09-12T04:17:58.373Z,0.00
2022-09-12T04:18:57.861Z,0.00
2022-09-12T04:19:57.673Z,0.00
2022-09-12T04:20:57.679Z,0.00
2022-09-12T04:21:57.535Z,0.00
2022-09-12T04:22:57.735Z,0.00
2022-09-12T04:23:57.446Z,0.00
2022-09-12T04:24:57.504Z,0.00
2022-09-12T04:25:57.359Z,0.00
2022-09-12T04:26:57.716Z,0.00
2022-09-12T04:27:57.526Z,0.00
2022-09-12T04:28:57.234Z,0.00
2022-09-12T04:29:57.332Z,0.00
2022-09-12T04:30:57.293Z,4.00
2022-09-12T04:31:57.355Z,0.00
2022-09-12T04:32:57.146Z,4.00
2022-09-12T04:33:57.030Z,4.00
2022-09-12T04:34:57.352Z,4.00
2022-09-12T04:35:57.032Z,8.00
2022-09-12T04:36:56.995Z,8.00
2022-09-12T04:37:57.057Z,8.00
2022-09-12T04:38:56.818Z,8.00
2022-09-12T04:39:57.071Z,12.00
2022-09-12T04:40:56.811Z,16.00
2022-09-12T04:41:56.798Z,20.00
2022-09-12T04:42:56.625Z,24.00
2022-09-12T04:43:56.698Z,24.00
2022-09-12T04:44:56.598Z,32.00
2022-09-12T04:45:56.678Z,40.00
2022-09-12T04:46:58.865Z,48.00
2022-09-12T04:47:56.563Z,56.00
2022-09-12T04:48:57.163Z,72.00
2022-09-12T04:49:56.636Z,80.00
2022-09-12T04:50:56.399Z,96.00
2022-09-12T04:51:56.269Z,112.00
2022-09-12T04:52:56.394Z,132.00
2022-09-12T04:53:56.128Z,156.00
2022-09-12T04:54:56.088Z,180.00
2022-09-12T04:55:56.143Z,204.00
2022-09-12T04:56:56.203Z,232.00
2022-09-12T04:57:55.953Z,264.00
2022-09-12T04:58:56.072Z,296.00
2022-09-12T04:59:55.970Z,332.00
2022-09-12T05:00:55.917Z,372.00
2022-09-12T05:01:56.074Z,412.00
2022-09-12T05:02:55.778Z,456.00
2022-09-12T05:03:57.260Z,496.00
2022-09-12T05:04:55.981Z,544.00
2022-09-12T05:05:56.516Z,592.00
2022-09-12T05:06:55.589Z,640.00
2022-09-12T05:07:56.689Z,692.00
2022-09-12T05:08:55.478Z,744.00
2022-09-12T05:09:55.677Z,800.00
2022-09-12T05:10:55.482Z,852.00
2022-09-12T05:12:04.616Z,908.00
2022-09-12T05:12:55.552Z,968.00
2022-09-12T05:13:55.590Z,1020.00
2022-09-12T05:14:55.210Z,1076.00
2022-09-12T05:15:55.315Z,1136.00
2022-09-12T05:16:55.216Z,1192.00
2022-09-12T05:17:55.221Z,1248.00
2022-09-12T05:18:55.069Z,1312.00
2022-09-12T05:19:55.323Z,1364.00
2022-09-12T05:20:54.947Z,1424.00
2022-09-12T05:21:55.150Z,1480.00
2022-09-12T05:22:54.862Z,1536.00
2022-09-12T05:23:54.958Z,1588.00
2022-09-12T05:24:55.042Z,1640.00
2022-09-12T05:25:55.010Z,1692.00
2022-09-12T05:26:54.684Z,1744.00
2022-09-12T05:27:54.650Z,1796.00
2022-09-12T05:28:54.607Z,1844.00
2022-09-12T05:29:54.850Z,1896.00
2022-09-12T05:30:54.564Z,1944.00
2022-09-12T05:31:55.640Z,1988.00
2022-09-12T05:32:54.421Z,2040.00
2022-09-12T05:33:56.664Z,2084.00
2022-09-12T05:34:54.420Z,2132.00
2022-09-12T05:35:54.429Z,2172.00
2022-09-12T05:36:54.549Z,2220.00
2022-09-12T05:37:54.451Z,2260.00
2022-09-12T05:38:54.165Z,2304.00
2022-09-12T05:39:54.577Z,2340.00
2022-09-12T05:40:54.077Z,2376.00
2022-09-12T05:41:54.172Z,2416.00
2022-09-12T05:42:54.019Z,2456.00
2022-09-12T05:43:54.181Z,2496.00
2022-09-12T05:44:53.988Z,2532.00
2022-09-12T05:45:53.909Z,2572.00
2022-09-12T05:46:54.002Z,2604.00
2022-09-12T05:47:53.776Z,2640.00
2022-09-12T05:48:56.106Z,2672.00
2022-09-12T05:49:53.676Z,2712.00
2022-09-12T05:50:53.825Z,2752.00
2022-09-12T05:51:53.891Z,2792.00
2022-09-12T05:52:53.647Z,2836.00
2022-09-12T05:53:53.502Z,2868.00
2022-09-12T05:54:53.689Z,2900.00
2022-09-12T05:55:53.664Z,2936.00
2022-09-12T05:56:53.386Z,2976.00
2022-09-12T05:57:53.464Z,3008.00
2022-09-12T05:58:53.358Z,3044.00
2022-09-12T05:59:53.482Z,3072.00
2022-09-12T06:03:47.073Z,3200.00
2022-09-12T06:04:47.010Z,3224.00
2022-09-12T06:05:50.539Z,3260.00
2022-09-12T06:06:46.918Z,3292.00
2022-09-12T06:07:46.874Z,3332.00
2022-09-12T06:08:46.875Z,3368.00
2022-09-12T06:09:46.967Z,3400.00
2022-09-12T06:10:46.738Z,3428.00
2022-09-12T06:11:46.701Z,3452.00
2022-09-12T06:12:46.651Z,3488.00
2022-09-12T06:13:46.607Z,3524.00
2022-09-12T06:14:46.560Z,3564.00
2022-09-12T06:15:46.630Z,3596.00
2022-09-12T06:16:46.506Z,3616.00
2022-09-12T06:17:50.768Z,3636.00
2022-09-12T06:18:46.489Z,3660.00
2022-09-12T06:19:46.348Z,3688.00
2022-09-12T06:20:46.299Z,3728.00
2022-09-12T06:21:46.276Z,3768.00
2022-09-12T06:24:18.196Z,3852.00
2022-09-12T06:25:18.163Z,3876.00
2022-09-12T06:26:18.106Z,3896.00
2022-09-12T06:27:18.060Z,3916.00
2022-09-12T06:28:18.016Z,3936.00
2022-09-12T06:29:17.970Z,3964.00
2022-09-12T06:30:19.573Z,3996.00
2022-09-12T06:31:17.902Z,4024.00
2022-09-12T06:32:17.838Z,4052.00
2022-09-12T06:33:17.799Z,4084.00
2022-09-12T06:34:17.782Z,4112.00
2022-09-12T06:35:17.715Z,4144.00
2022-09-12T06:36:17.670Z,4176.00
2022-09-12T06:37:17.621Z,4200.00
2022-09-12T06:38:17.653Z,4228.00
2022-09-12T06:39:17.544Z,4260.00
2022-09-12T06:40:17.556Z,4292.00
2022-09-12T06:41:17.452Z,4324.00
2022-09-12T06:42:17.410Z,4360.00
2022-09-12T06:43:17.377Z,4396.00
2022-09-12T06:44:17.322Z,4432.00
2022-09-12T06:45:17.279Z,4448.00
2022-09-12T06:46:17.290Z,4464.00
2022-09-12T06:47:17.196Z,4464.00
2022-09-12T06:48:17.147Z,4456.00
2022-09-12T06:49:17.128Z,4488.00
2022-09-12T06:50:17.060Z,4524.00
2022-09-12T06:51:17.020Z,4564.00
2022-09-12T06:52:16.973Z,4584.00
2022-09-12T06:53:16.934Z,4596.00
2022-09-12T06:54:17.051Z,4604.00
2022-09-12T06:55:19.913Z,4600.00
2022-09-12T06:56:16.804Z,4604.00
2022-09-12T06:57:16.759Z,4608.00
2022-09-12T06:58:16.719Z,4628.00
2022-09-12T06:59:16.673Z,4652.00
2022-09-12T07:00:16.630Z,4680.00
2022-09-12T07:01:16.638Z,4632.00
2022-09-12T07:02:16.596Z,4648.00
2022-09-12T07:03:16.505Z,4744.00
2022-09-12T07:04:16.462Z,4776.00
2022-09-12T07:05:16.416Z,4800.00
2022-09-12T07:06:16.370Z,4828.00
2022-09-12T07:07:16.325Z,4856.00
2022-09-12T07:08:16.314Z,4884.00
2022-09-12T07:09:16.250Z,4900.00
2022-09-12T07:10:19.107Z,4924.00
2022-09-12T07:11:16.160Z,4952.00
2022-09-12T07:12:16.113Z,4984.00
2022-09-12T07:13:16.071Z,5004.00
2022-09-12T07:14:16.049Z,5036.00
2022-09-12T07:15:15.988Z,5072.00
2022-09-12T07:16:19.420Z,5108.00
2022-09-12T07:17:15.899Z,5156.00
2022-09-12T07:18:15.859Z,5200.00
2022-09-12T07:19:15.814Z,5252.00
2022-09-12T07:20:15.883Z,5308.00
2022-09-12T07:21:15.734Z,5360.00
2022-09-12T07:22:15.683Z,5408.00
2022-09-12T07:23:15.643Z,5464.00
2022-09-12T07:24:15.598Z,5508.00
2022-09-12T07:25:15.554Z,5556.00
2022-09-12T07:26:15.526Z,5596.00
2022-09-12T07:27:15.475Z,5628.00
2022-09-12T07:28:15.432Z,5652.00
2022-09-12T07:29:42.992Z,5676.00
2022-09-12T07:30:15.339Z,5692.00
2022-09-12T07:31:15.364Z,5712.00
2022-09-12T07:32:15.273Z,5700.00
2022-09-12T07:33:15.219Z,5740.00
2022-09-12T07:34:15.278Z,5740.00
2022-09-12T07:35:15.133Z,5740.00
2022-09-12T07:36:15.114Z,5756.00
2022-09-12T07:37:15.050Z,5776.00
2022-09-12T07:38:15.028Z,5740.00
2022-09-12T07:39:14.961Z,5688.00
2022-09-12T07:40:14.931Z,5656.00
2022-09-12T07:41:14.877Z,5768.00
2022-09-12T07:42:14.838Z,5780.00
2022-09-12T07:43:14.795Z,5804.00
2022-09-12T07:44:14.776Z,5828.00
2022-09-12T07:45:14.706Z,5852.00
2022-09-12T07:46:14.727Z,5836.00
2022-09-12T07:47:14.627Z,5860.00
2022-09-12T07:48:14.610Z,5876.00
2022-09-12T07:49:14.566Z,5856.00
2022-09-12T07:50:14.498Z,5828.00
2022-09-12T07:51:14.457Z,5852.00
2022-09-12T07:52:14.414Z,5852.00
2022-09-12T07:53:14.384Z,5868.00
2022-09-12T07:54:14.328Z,5888.00
2022-09-12T07:55:14.289Z,5896.00
2022-09-12T07:56:14.245Z,5940.00
2022-09-12T07:57:14.201Z,6012.00
2022-09-12T07:58:14.162Z,6052.00
2022-09-12T07:59:21.537Z,6076.00
2022-09-12T08:00:14.076Z,6100.00
2022-09-12T08:01:14.074Z,6136.00
2022-09-12T08:02:17.264Z,6136.00
2022-09-12T08:03:13.953Z,6064.00
2022-09-12T08:04:13.911Z,6012.00
2022-09-12T08:05:13.884Z,6116.00
2022-09-12T08:06:13.828Z,6084.00
2022-09-12T08:07:13.791Z,6064.00
2022-09-12T08:08:13.743Z,6068.00
2022-09-12T08:09:13.703Z,6092.00
2022-09-12T08:10:13.691Z,6116.00
2022-09-12T08:11:13.616Z,6184.00
2022-09-12T08:12:13.574Z,6260.00
2022-09-12T08:13:13.537Z,6324.00
2022-09-12T08:14:13.491Z,6368.00
2022-09-12T08:15:13.452Z,6416.00
2022-09-12T08:16:13.464Z,6404.00
2022-09-12T08:17:13.364Z,6420.00
2022-09-12T08:18:13.330Z,6544.00
2022-09-12T08:19:13.289Z,6488.00
2022-09-12T08:20:13.244Z,6428.00
2022-09-12T08:21:13.202Z,6696.00
2022-09-12T08:22:13.189Z,6744.00
2022-09-12T08:23:13.130Z,6788.00
2022-09-12T08:24:13.080Z,6828.00
2022-09-12T08:25:13.035Z,6904.00
2022-09-12T08:26:12.994Z,7076.00
2022-09-12T08:27:12.950Z,7240.00
2022-09-12T08:28:12.934Z,7308.00
2022-09-12T08:29:12.872Z,7440.00
2022-09-12T08:30:12.831Z,7968.00
2022-09-12T08:31:12.830Z,8412.00
2022-09-12T08:32:12.740Z,8868.00
2022-09-12T08:33:12.705Z,9428.00
2022-09-12T08:34:12.684Z,10156.00
2022-09-12T08:35:12.625Z,24928.00
2022-09-12T08:36:12.580Z,47200.00
2022-09-12T08:37:12.546Z,52928.00
2022-09-12T08:38:12.510Z,49984.00
2022-09-12T08:39:12.488Z,40864.00
2022-09-12T08:40:12.491Z,40864.00
2022-09-12T08:41:12.379Z,44064.00
2022-09-12T08:42:12.348Z,58240.00
2022-09-12T08:43:12.302Z,57888.00
2022-09-12T08:44:12.256Z,58880.00
2022-09-12T08:45:12.245Z,66592.00
2022-09-12T08:46:12.268Z,64928.00
2022-09-12T08:47:12.146Z,60128.00
2022-09-12T08:48:12.101Z,58624.00
2022-09-12T08:49:12.069Z,64960.00
2022-09-12T08:50:12.026Z,56640.00
2022-09-12T08:51:12.097Z,55680.00
2022-09-12T08:52:11.953Z,51712.00
2022-09-12T08:53:11.918Z,56576.00
2022-09-12T08:54:11.876Z,54816.00
2022-09-12T08:55:11.848Z,53152.00
2022-09-12T08:56:11.811Z,53312.00
2022-09-12T08:57:11.783Z,51168.00
2022-09-12T08:58:11.750Z,50816.00
2022-09-12T08:59:11.715Z,55296.00
2022-09-12T09:00:11.659Z,55232.00
2022-09-12T09:01:11.717Z,55264.00
2022-09-12T09:02:11.688Z,55840.00
2022-09-12T09:03:11.591Z,41184.00
2022-09-12T09:04:11.527Z,42720.00
2022-09-12T09:05:11.516Z,60256.00
2022-09-12T09:06:11.456Z,61600.00
2022-09-12T09:07:11.424Z,60640.00
2022-09-12T09:08:11.391Z,63424.00
2022-09-12T09:09:11.383Z,62432.00
2022-09-12T09:10:11.320Z,71392.00
2022-09-12T09:11:11.292Z,73408.00
2022-09-12T09:12:11.259Z,74304.00
2022-09-12T09:13:11.228Z,72128.00
2022-09-12T09:14:11.192Z,74592.00
2022-09-12T09:15:11.173Z,74528.00
2022-09-12T09:16:11.158Z,76320.00
2022-09-12T09:17:11.097Z,79584.00
2022-09-12T09:18:11.070Z,76544.00
2022-09-12T09:19:11.034Z,78528.00
2022-09-12T09:20:11.013Z,76928.00
2022-09-12T09:21:10.967Z,77152.00
2022-09-12T09:22:10.939Z,78176.00
2022-09-12T09:23:10.907Z,81408.00
2022-09-12T09:24:10.874Z,81440.00
2022-09-12T09:25:10.950Z,81984.00
2022-09-12T09:26:10.816Z,87840.00
2022-09-12T09:27:29.912Z,74432.00
2022-09-12T09:28:10.754Z,65824.00
2022-09-12T09:29:10.726Z,66944.00
2022-09-12T09:30:10.698Z,67168.00
2022-09-12T09:31:10.901Z,64512.00
2022-09-12T09:32:10.633Z,66176.00
2022-09-12T09:33:10.608Z,72704.00
2022-09-12T09:34:10.572Z,87232.00
2022-09-12T09:35:10.543Z,83040.00
2022-09-12T09:36:10.513Z,78688.00
2022-09-12T09:37:10.497Z,94080.00
2022-09-12T09:38:10.458Z,82016.00
2022-09-12T09:39:10.420Z,72800.00
2022-09-12T09:40:10.518Z,81472.00
2022-09-12T09:41:10.364Z,68640.00
2022-09-12T09:42:10.333Z,73824.00
2022-09-12T09:43:10.335Z,71328.00
2022-09-12T09:44:10.464Z,82240.00
2022-09-12T09:45:10.254Z,92800.00
2022-09-12T09:46:10.305Z,98272.00
2022-09-12T09:47:10.188Z,66368.00
2022-09-12T09:48:10.158Z,89152.00
2022-09-12T09:49:10.152Z,92160.00
2022-09-12T09:50:10.098Z,87104.00
2022-09-12T09:51:10.067Z,84288.00
2022-09-12T09:52:10.040Z,81184.00
2022-09-12T09:53:10.014Z,86304.00
2022-09-12T09:54:09.983Z,89088.00
2022-09-12T09:55:10.081Z,88800.00
2022-09-12T09:56:09.923Z,86656.00
2022-09-12T09:57:09.896Z,88224.00
2022-09-12T09:58:09.862Z,90848.00
2022-09-12T09:59:09.848Z,79200.00
2022-09-12T10:00:09.807Z,80672.00
2022-09-12T10:01:09.862Z,93824.00
2022-09-12T10:02:09.811Z,83648.00
2022-09-12T10:03:13.545Z,86048.00
2022-09-12T10:04:09.696Z,95584.00
2022-09-12T10:05:09.672Z,88608.00
2022-09-12T10:06:09.639Z,91936.00
2022-09-12T10:07:09.730Z,86496.00
2022-09-12T10:08:09.583Z,83264.00
2022-09-12T10:09:09.558Z,90752.00
2022-09-12T10:10:09.530Z,97472.00
2022-09-12T10:11:09.504Z,92576.00
2022-09-12T10:12:09.472Z,77632.00
2022-09-12T10:13:09.476Z,70176.00
2022-09-12T10:14:09.425Z,95520.00
2022-09-12T10:15:09.395Z,89472.00
2022-09-12T10:16:09.507Z,76864.00
2022-09-12T10:17:09.339Z,84032.00
2022-09-12T10:18:09.311Z,97504.00
2022-09-12T10:19:09.285Z,85984.00
2022-09-12T10:20:21.023Z,84128.00
2022-09-12T10:21:09.231Z,102336.00
2022-09-12T10:22:09.385Z,104864.00
2022-09-12T10:23:09.182Z,94752.00
2022-09-12T10:24:09.146Z,83744.00
2022-09-12T10:25:09.121Z,98592.00
2022-09-12T10:26:09.097Z,115680.00
2022-09-12T10:27:09.068Z,98752.00
2022-09-12T10:28:09.059Z,82336.00
2022-09-12T10:29:09.015Z,96064.00
2022-09-12T10:30:08.993Z,104192.00
2022-09-12T10:31:09.009Z,94496.00
2022-09-12T10:32:08.938Z,79904.00
2022-09-12T10:33:08.933Z,80576.00
2022-09-12T10:34:08.884Z,102272.00
2022-09-12T10:35:08.855Z,109248.00
2022-09-12T10:36:08.835Z,83840.00
2022-09-12T10:37:08.806Z,77632.00
2022-09-12T10:38:08.780Z,102400.00
2022-09-12T10:39:08.766Z,99360.00
2022-09-12T10:40:08.803Z,76352.00
2022-09-12T10:41:08.700Z,70592.00
2022-09-12T10:42:08.678Z,80352.00
2022-09-12T10:43:08.655Z,84320.00
2022-09-12T10:44:08.623Z,78912.00
2022-09-12T10:45:08.619Z,66304.00
2022-09-12T10:46:08.590Z,87840.00
2022-09-12T10:47:08.545Z,87168.00
2022-09-12T10:48:08.525Z,82880.00
2022-09-12T10:49:08.493Z,90560.00
2022-09-12T10:50:08.467Z,94976.00
2022-09-12T10:51:08.459Z,91040.00
2022-09-12T10:52:08.417Z,98016.00
2022-09-12T10:53:08.394Z,98176.00
2022-09-12T10:54:08.367Z,89152.00
2022-09-12T10:55:08.340Z,94368.00
2022-09-12T10:56:08.324Z,100576.00
2022-09-12T10:57:08.297Z,91840.00
2022-09-12T10:58:08.256Z,92192.00
2022-09-12T10:59:08.241Z,101280.00
2022-09-12T11:00:08.209Z,101536.00
2022-09-12T11:01:08.246Z,93152.00
2022-09-12T11:02:08.208Z,94368.00
2022-09-12T11:03:08.133Z,101184.00
2022-09-12T11:04:08.108Z,98432.00
2022-09-12T11:05:08.078Z,93600.00
2022-09-12T11:06:08.066Z,91264.00
2022-09-12T11:07:08.139Z,102912.00
2022-09-12T11:08:08.005Z,110368.00
2022-09-12T11:09:07.978Z,99008.00
2022-09-12T11:10:07.949Z,77888.00
2022-09-12T11:11:07.921Z,89024.00
2022-09-12T11:12:07.897Z,105856.00
2022-09-12T11:13:07.918Z,108864.00
2022-09-12T11:14:08.257Z,96352.00
2022-09-12T11:15:07.817Z,95712.00
2022-09-12T11:16:07.859Z,102112.00
2022-09-12T11:17:11.634Z,90080.00
2022-09-12T11:18:07.740Z,97760.00
2022-09-12T11:19:07.739Z,102912.00
2022-09-12T11:20:07.690Z,101824.00
2022-09-12T11:21:07.678Z,98048.00
2022-09-12T11:22:07.636Z,91232.00
2022-09-12T11:23:07.612Z,99968.00
2022-09-12T11:24:07.578Z,114304.00
2022-09-12T11:25:07.573Z,94688.00
2022-09-12T11:26:07.533Z,85344.00
2022-09-12T11:27:07.507Z,105888.00
2022-09-12T11:28:07.472Z,120576.00
2022-09-12T11:29:07.453Z,112544.00
2022-09-12T11:30:07.450Z,103456.00
2022-09-12T11:31:07.437Z,114720.00
2022-09-12T11:32:07.391Z,128192.00
2022-09-12T11:33:07.377Z,100480.00
2022-09-12T11:34:07.317Z,87936.00
2022-09-12T11:35:07.332Z,100896.00
2022-09-12T11:36:07.265Z,107744.00
2022-09-12T11:37:10.589Z,94112.00
2022-09-12T11:38:07.222Z,99456.00
2022-09-12T11:39:07.203Z,111584.00
2022-09-12T11:40:07.178Z,97664.00
2022-09-12T11:41:07.133Z,100960.00
2022-09-12T11:42:07.111Z,107392.00
2022-09-12T11:43:07.085Z,124960.00
2022-09-12T11:44:07.067Z,107232.00
2022-09-12T11:45:07.065Z,95104.00
2022-09-12T11:46:07.078Z,107840.00
2022-09-12T11:47:06.980Z,132032.00
2022-09-12T11:48:06.956Z,118176.00
2022-09-12T11:49:06.934Z,99808.00
2022-09-12T11:50:06.912Z,102304.00
2022-09-12T11:51:06.905Z,123712.00
2022-09-12T11:52:06.857Z,132928.00
2022-09-12T11:53:06.835Z,118016.00
2022-09-12T11:54:06.806Z,102112.00
2022-09-12T11:55:06.781Z,113024.00
2022-09-12T11:56:06.759Z,114336.00
2022-09-12T11:57:06.767Z,108000.00
2022-09-12T11:58:06.707Z,106400.00
2022-09-12T11:59:06.680Z,109888.00
2022-09-12T12:00:06.654Z,128224.00
2022-09-12T12:01:06.629Z,117632.00
2022-09-12T12:02:06.637Z,90048.00
2022-09-12T12:03:06.594Z,99840.00
2022-09-12T12:04:06.555Z,128032.00
2022-09-12T12:05:06.533Z,125120.00
2022-09-12T12:06:06.507Z,104384.00
2022-09-12T12:07:06.481Z,107328.00
2022-09-12T12:08:06.480Z,116896.00
2022-09-12T12:09:06.457Z,108544.00
2022-09-12T12:10:06.407Z,95936.00
2022-09-12T12:11:06.389Z,105696.00
2022-09-12T12:12:06.353Z,114592.00
2022-09-12T12:13:08.684Z,105184.00
2022-09-12T12:14:06.301Z,89888.00
2022-09-12T12:15:06.281Z,93408.00
2022-09-12T12:16:06.316Z,104768.00
2022-09-12T12:17:13.942Z,110272.00
2022-09-12T12:18:06.205Z,107808.00
2022-09-12T12:19:10.093Z,99904.00
2022-09-12T12:20:08.572Z,99936.00
2022-09-12T12:21:06.129Z,107968.00
2022-09-12T12:22:06.108Z,115744.00
2022-09-12T12:23:06.081Z,115392.00
2022-09-12T12:24:06.076Z,105696.00
2022-09-12T12:25:06.031Z,103232.00
2022-09-12T12:26:06.007Z,110752.00
2022-09-12T12:27:05.995Z,114752.00